createdAt,value
2018-05-29T00:00:38.551Z,22.70
2018-05-29T00:03:04.322Z,22.66
2018-05-29T00:05:30.079Z,22.64
2018-05-29T00:07:55.843Z,22.63
2018-05-29T00:10:21.607Z,22.60
2018-05-29T00:12:47.391Z,22.57
2018-05-29T00:15:13.139Z,22.54
2018-05-29T00:17:38.912Z,22.51
2018-05-29T00:20:04.669Z,22.48
2018-05-29T00:22:30.479Z,22.45
2018-05-29T00:24:56.228Z,22.42
2018-05-29T00:27:22.000Z,22.40
2018-05-29T00:29:47.771Z,22.38
2018-05-29T00:32:13.520Z,22.33
2018-05-29T00:34:39.312Z,22.29
2018-05-29T00:37:05.055Z,22.29
2018-05-29T00:39:30.820Z,22.27
2018-05-29T00:41:56.575Z,22.27
2018-05-29T00:44:22.349Z,22.26
2018-05-29T00:46:48.099Z,22.26
2018-05-29T00:49:13.895Z,22.26
2018-05-29T00:51:39.639Z,22.25
2018-05-29T00:54:05.512Z,22.26
2018-05-29T00:56:31.259Z,22.23
2018-05-29T00:58:57.016Z,22.21
2018-05-29T01:01:22.775Z,22.19
2018-05-29T01:03:48.775Z,22.16
2018-05-29T01:06:14.524Z,22.14
2018-05-29T01:08:40.305Z,22.10
2018-05-29T01:11:06.061Z,22.08
2018-05-29T01:13:31.910Z,22.04
2018-05-29T01:15:57.670Z,22.00
2018-05-29T01:18:23.428Z,21.96
2018-05-29T01:20:49.217Z,21.93
2018-05-29T01:23:14.960Z,21.91
2018-05-29T01:25:40.759Z,21.87
2018-05-29T01:28:06.515Z,21.84
2018-05-29T01:30:32.303Z,21.81
2018-05-29T01:32:58.069Z,21.79
2018-05-29T01:35:23.834Z,21.76
2018-05-29T01:37:49.599Z,21.71
2018-05-29T01:40:15.409Z,21.73
2018-05-29T01:42:41.179Z,21.71
2018-05-29T01:45:06.965Z,21.71
2018-05-29T01:47:32.751Z,21.70
2018-05-29T01:49:58.529Z,21.69
2018-05-29T01:52:24.279Z,21.68
2018-05-29T01:54:50.140Z,21.68
2018-05-29T01:57:15.887Z,21.67
2018-05-29T01:59:41.680Z,21.66
2018-05-29T02:02:07.419Z,21.66
2018-05-29T02:04:33.282Z,21.64
2018-05-29T02:06:58.980Z,21.63
2018-05-29T02:09:24.765Z,21.63
2018-05-29T02:11:50.512Z,21.62
2018-05-29T02:14:16.274Z,21.61
2018-05-29T02:16:42.044Z,21.60
2018-05-29T02:19:07.823Z,21.59
2018-05-29T02:21:33.567Z,21.56
2018-05-29T02:23:59.470Z,21.55
2018-05-29T02:26:25.336Z,21.54
2018-05-29T02:28:51.084Z,21.53
2018-05-29T02:31:16.839Z,21.52
2018-05-29T02:33:42.592Z,21.49
2018-05-29T02:36:08.376Z,21.50
2018-05-29T02:38:34.111Z,21.49
2018-05-29T02:41:00.012Z,21.47
2018-05-29T02:43:25.772Z,21.48
2018-05-29T02:45:51.544Z,21.46
2018-05-29T02:48:17.287Z,21.45
2018-05-29T02:50:43.058Z,21.44
2018-05-29T02:53:08.804Z,21.42
2018-05-29T02:55:34.578Z,21.42
2018-05-29T02:58:00.320Z,21.41
2018-05-29T03:00:26.120Z,21.40
2018-05-29T03:02:51.895Z,21.35
2018-05-29T03:05:17.729Z,21.34
2018-05-29T03:07:43.472Z,21.33
2018-05-29T03:10:09.229Z,21.33
2018-05-29T03:12:35.008Z,21.30
2018-05-29T03:15:00.775Z,21.28
2018-05-29T03:17:26.515Z,21.28
2018-05-29T03:19:52.264Z,21.28
2018-05-29T03:22:18.013Z,21.27
2018-05-29T03:24:43.797Z,21.28
2018-05-29T03:27:09.784Z,21.29
2018-05-29T03:29:35.535Z,21.29
2018-05-29T03:32:01.328Z,21.31
2018-05-29T03:34:27.092Z,21.31
2018-05-29T03:36:52.816Z,21.32
2018-05-29T03:39:18.985Z,21.31
2018-05-29T03:41:44.755Z,21.32
2018-05-29T03:44:10.775Z,21.31
2018-05-29T03:46:36.546Z,21.34
2018-05-29T03:49:02.294Z,21.37
2018-05-29T03:51:28.051Z,21.39
2018-05-29T03:53:53.803Z,21.40
2018-05-29T03:56:19.563Z,21.42
2018-05-29T03:58:45.339Z,21.44
2018-05-29T04:01:11.117Z,21.47
2018-05-29T04:03:36.863Z,21.48
2018-05-29T04:06:02.706Z,21.51
2018-05-29T04:08:28.506Z,21.54
2018-05-29T04:10:54.507Z,21.58
2018-05-29T04:13:20.276Z,21.61
2018-05-29T04:15:46.064Z,21.64
2018-05-29T04:18:11.931Z,21.68
2018-05-29T04:20:37.690Z,21.73
2018-05-29T04:23:03.448Z,21.78
2018-05-29T04:25:29.208Z,21.83
2018-05-29T04:27:54.964Z,21.89
2018-05-29T04:30:20.728Z,21.90
2018-05-29T04:32:46.503Z,22.00
2018-05-29T04:35:12.238Z,22.02
2018-05-29T04:37:38.002Z,22.04
2018-05-29T04:40:03.759Z,22.06
2018-05-29T04:42:29.544Z,22.08
2018-05-29T04:44:55.317Z,22.10
2018-05-29T04:47:21.085Z,22.14
2018-05-29T04:49:46.971Z,22.16
2018-05-29T04:52:12.746Z,22.17
2018-05-29T04:54:38.543Z,22.22
2018-05-29T04:57:04.312Z,22.26
2018-05-29T04:59:30.055Z,22.29
2018-05-29T05:01:55.809Z,22.35
2018-05-29T05:04:21.570Z,22.41
2018-05-29T05:06:47.328Z,22.45
2018-05-29T05:09:13.076Z,22.48
2018-05-29T05:11:38.827Z,22.51
2018-05-29T05:14:04.595Z,22.58
2018-05-29T05:16:30.434Z,22.66
2018-05-29T05:18:56.203Z,22.74
2018-05-29T05:21:22.099Z,22.81
2018-05-29T05:23:47.863Z,22.87
2018-05-29T05:26:13.615Z,22.91
2018-05-29T05:28:39.372Z,22.97
2018-05-29T05:31:05.119Z,22.98
2018-05-29T05:33:30.884Z,23.04
2018-05-29T05:35:56.637Z,23.08
2018-05-29T05:38:22.399Z,23.16
2018-05-29T05:40:48.167Z,23.20
2018-05-29T05:43:13.983Z,23.27
2018-05-29T05:45:39.729Z,23.30
2018-05-29T05:48:05.501Z,23.37
2018-05-29T05:50:31.292Z,23.41
2018-05-29T05:52:57.080Z,23.46
2018-05-29T05:55:23.283Z,23.53
2018-05-29T05:57:49.045Z,23.58
2018-05-29T06:00:14.901Z,23.65
2018-05-29T06:02:40.667Z,23.67
2018-05-29T06:05:06.569Z,23.71
2018-05-29T06:07:32.322Z,23.77
2018-05-29T06:09:58.079Z,23.79
2018-05-29T06:12:23.829Z,23.85
2018-05-29T06:14:49.600Z,23.92
2018-05-29T06:17:15.371Z,23.98
2018-05-29T06:19:41.124Z,24.04
2018-05-29T06:22:07.063Z,24.09
2018-05-29T06:24:32.819Z,24.16
2018-05-29T06:26:58.571Z,24.22
2018-05-29T06:29:24.414Z,24.24
2018-05-29T06:31:50.183Z,24.26
2018-05-29T06:34:15.948Z,24.37
2018-05-29T06:36:41.703Z,24.38
2018-05-29T06:39:07.467Z,24.44
2018-05-29T06:41:33.220Z,24.53
2018-05-29T06:43:58.987Z,24.60
2018-05-29T06:46:24.739Z,24.64
2018-05-29T06:48:50.530Z,24.67
2018-05-29T06:51:16.429Z,24.72
2018-05-29T06:53:42.191Z,24.76
2018-05-29T06:56:07.943Z,24.86
2018-05-29T06:58:33.728Z,24.93
2018-05-29T07:00:59.479Z,24.97
2018-05-29T07:03:25.235Z,25.08
2018-05-29T07:05:51.007Z,25.17
2018-05-29T07:08:17.187Z,25.24
2018-05-29T07:10:43.031Z,25.24
2018-05-29T07:13:08.843Z,25.28
2018-05-29T07:15:34.592Z,25.35
2018-05-29T07:18:00.399Z,25.45
2018-05-29T07:20:26.135Z,25.54
2018-05-29T07:22:51.923Z,25.59
2018-05-29T07:25:17.674Z,25.65
2018-05-29T07:27:43.412Z,25.66
2018-05-29T07:30:09.172Z,25.73
2018-05-29T07:32:34.944Z,25.82
2018-05-29T07:35:00.826Z,25.84
2018-05-29T07:37:26.639Z,25.89
2018-05-29T07:39:52.392Z,25.92
2018-05-29T07:42:18.168Z,25.96
2018-05-29T07:44:43.927Z,26.03
2018-05-29T07:47:09.785Z,26.13
2018-05-29T07:49:35.555Z,26.20
2018-05-29T07:52:01.340Z,26.28
2018-05-29T07:54:27.109Z,26.35
2018-05-29T07:56:52.860Z,26.44
2018-05-29T07:59:18.628Z,26.48
2018-05-29T08:01:44.423Z,26.55
2018-05-29T08:04:10.196Z,26.60
2018-05-29T08:06:35.952Z,26.61
2018-05-29T08:09:01.759Z,26.72
2018-05-29T08:11:27.499Z,26.81
2018-05-29T08:13:53.267Z,26.80
2018-05-29T08:16:19.054Z,26.85
2018-05-29T08:18:44.805Z,26.92
2018-05-29T08:21:10.606Z,26.95
2018-05-29T08:23:36.373Z,26.99
2018-05-29T08:26:02.160Z,27.04
2018-05-29T08:28:27.911Z,27.14
2018-05-29T08:30:53.686Z,27.22
2018-05-29T08:33:19.432Z,27.24
2018-05-29T08:35:45.187Z,27.28
2018-05-29T08:38:11.056Z,27.31
2018-05-29T08:40:36.836Z,27.33
2018-05-29T08:43:02.587Z,27.42
2018-05-29T08:45:28.339Z,27.49
2018-05-29T08:47:54.075Z,27.51
2018-05-29T08:50:19.868Z,27.60
2018-05-29T08:52:45.620Z,27.70
2018-05-29T08:55:11.380Z,27.74
2018-05-29T08:57:37.132Z,27.83
2018-05-29T09:00:02.894Z,27.89
2018-05-29T09:02:28.664Z,27.95
2018-05-29T09:04:54.432Z,28.00
2018-05-29T09:07:20.271Z,28.05
2018-05-29T09:09:46.035Z,28.02
2018-05-29T09:12:11.784Z,28.09
2018-05-29T09:14:37.536Z,28.18
2018-05-29T09:17:03.304Z,28.24
2018-05-29T09:19:29.067Z,28.32
2018-05-29T09:21:54.839Z,28.41
2018-05-29T09:24:20.596Z,28.43
2018-05-29T09:26:46.348Z,28.46
2018-05-29T09:29:12.108Z,28.51
2018-05-29T09:31:37.884Z,28.52
2018-05-29T09:34:03.640Z,28.62
2018-05-29T09:36:29.395Z,28.70
2018-05-29T09:38:55.140Z,28.77
2018-05-29T09:41:20.912Z,28.82
2018-05-29T09:43:46.665Z,28.96
2018-05-29T09:46:12.428Z,28.96
2018-05-29T09:48:38.296Z,28.97
2018-05-29T09:51:04.071Z,29.05
2018-05-29T09:53:29.832Z,29.16
2018-05-29T09:55:55.695Z,29.27
2018-05-29T09:58:21.464Z,29.36
2018-05-29T10:00:48.061Z,29.45
2018-05-29T10:03:13.800Z,29.52
2018-05-29T10:05:39.558Z,29.46
2018-05-29T10:08:05.328Z,29.50
2018-05-29T10:10:31.084Z,29.65
2018-05-29T10:12:56.855Z,29.78
2018-05-29T10:15:22.600Z,29.80
2018-05-29T10:17:48.504Z,29.87
2018-05-29T10:20:14.255Z,29.78
2018-05-29T10:22:40.036Z,29.90
2018-05-29T10:25:05.800Z,30.04
2018-05-29T10:27:31.590Z,30.20
2018-05-29T10:29:57.367Z,30.30
2018-05-29T10:32:23.140Z,30.38
2018-05-29T10:34:48.999Z,30.47
2018-05-29T10:37:14.763Z,30.52
2018-05-29T10:39:40.551Z,30.55
2018-05-29T10:42:06.307Z,30.59
2018-05-29T10:44:32.100Z,30.64
2018-05-29T10:46:57.859Z,30.69
2018-05-29T10:49:23.616Z,30.73
2018-05-29T10:51:49.375Z,30.78
2018-05-29T10:54:15.120Z,30.89
2018-05-29T10:56:40.968Z,30.97
2018-05-29T10:59:06.737Z,30.94
2018-05-29T11:01:32.493Z,30.88
2018-05-29T11:03:58.235Z,30.98
2018-05-29T11:06:25.287Z,31.01
2018-05-29T11:08:51.035Z,31.14
2018-05-29T11:11:16.916Z,31.19
2018-05-29T11:13:42.667Z,31.26
2018-05-29T11:16:08.407Z,31.36
2018-05-29T11:18:34.157Z,31.43
2018-05-29T11:20:59.919Z,31.58
2018-05-29T11:23:26.604Z,31.64
2018-05-29T11:25:52.380Z,31.56
2018-05-29T11:28:18.407Z,31.62
2018-05-29T11:30:44.177Z,31.65
2018-05-29T11:33:09.952Z,31.65
2018-05-29T11:35:35.779Z,31.65
2018-05-29T11:38:01.543Z,31.70
2018-05-29T11:40:27.347Z,31.81
2018-05-29T11:42:53.132Z,31.86
2018-05-29T11:45:18.919Z,31.93
2018-05-29T11:47:44.705Z,32.00
2018-05-29T11:50:10.456Z,32.05
2018-05-29T11:52:36.246Z,32.04
2018-05-29T11:55:02.004Z,32.11
2018-05-29T11:57:27.831Z,32.18
2018-05-29T11:59:53.571Z,32.23
2018-05-29T12:02:19.364Z,32.09
2018-05-29T12:04:45.171Z,32.07
2018-05-29T12:07:10.917Z,32.06
2018-05-29T12:09:36.699Z,32.14
2018-05-29T12:12:14.648Z,32.25
2018-05-29T12:14:40.399Z,32.28
2018-05-29T12:17:06.147Z,32.33
2018-05-29T12:19:31.900Z,32.35
2018-05-29T12:21:57.671Z,32.31
2018-05-29T12:24:23.425Z,32.30
2018-05-29T12:26:49.223Z,32.31
2018-05-29T12:29:15.025Z,32.35
2018-05-29T12:31:40.816Z,32.44
2018-05-29T12:34:06.584Z,32.49
2018-05-29T12:36:32.340Z,32.54
2018-05-29T12:38:58.123Z,32.60
2018-05-29T12:41:23.904Z,32.64
2018-05-29T12:43:49.658Z,32.66
2018-05-29T12:46:15.492Z,32.66
2018-05-29T12:48:41.202Z,32.69
2018-05-29T12:51:06.951Z,32.76
2018-05-29T12:53:32.742Z,32.71
2018-05-29T12:55:58.546Z,32.71
2018-05-29T12:58:24.555Z,32.68
2018-05-29T13:00:50.315Z,32.58
2018-05-29T13:03:16.075Z,32.60
2018-05-29T13:05:41.939Z,32.61
2018-05-29T13:08:07.746Z,32.54
2018-05-29T13:10:33.502Z,32.60
2018-05-29T13:12:59.377Z,32.67
2018-05-29T13:15:25.143Z,32.76
2018-05-29T13:17:50.922Z,32.80
2018-05-29T13:20:16.823Z,32.85
2018-05-29T13:22:42.559Z,32.81
2018-05-29T13:25:08.318Z,32.78
2018-05-29T13:27:34.080Z,32.86
2018-05-29T13:29:59.851Z,32.87
2018-05-29T13:32:25.599Z,32.78
2018-05-29T13:34:51.367Z,32.82
2018-05-29T13:37:17.124Z,32.84
2018-05-29T13:39:43.053Z,32.81
2018-05-29T13:42:08.835Z,32.81
2018-05-29T13:44:34.583Z,32.81
2018-05-29T13:47:00.343Z,32.86
2018-05-29T13:49:26.155Z,32.88
2018-05-29T13:51:51.903Z,32.84
2018-05-29T13:54:17.656Z,32.90
2018-05-29T13:56:43.420Z,32.76
2018-05-29T13:59:09.179Z,32.60
2018-05-29T14:01:34.921Z,32.70
2018-05-29T14:04:00.686Z,32.65
2018-05-29T14:06:26.587Z,32.65
2018-05-29T14:08:52.408Z,32.64
2018-05-29T14:14:12.921Z,32.54
2018-05-29T14:16:38.667Z,32.54
2018-05-29T14:19:04.433Z,32.54
2018-05-29T14:21:30.174Z,32.55
2018-05-29T14:23:55.983Z,32.55
2018-05-29T14:26:21.782Z,32.58
2018-05-29T14:28:47.859Z,32.56
2018-05-29T14:31:13.595Z,32.60
2018-05-29T14:33:39.348Z,32.44
2018-05-29T14:36:05.112Z,32.48
2018-05-29T14:38:30.876Z,32.49
2018-05-29T14:40:56.671Z,32.48
2018-05-29T14:43:22.427Z,32.40
2018-05-29T14:45:48.188Z,32.31
2018-05-29T14:48:13.927Z,32.33
2018-05-29T14:50:39.710Z,32.37
2018-05-29T14:53:05.474Z,32.32
2018-05-29T14:55:31.240Z,32.26
2018-05-29T14:57:56.974Z,32.23
2018-05-29T15:00:22.743Z,32.23
2018-05-29T15:02:48.521Z,32.14
2018-05-29T15:05:14.279Z,32.10
2018-05-29T15:07:40.051Z,32.13
2018-05-29T15:10:05.812Z,32.10
2018-05-29T15:12:31.575Z,32.07
2018-05-29T15:14:57.329Z,32.05
2018-05-29T15:17:23.093Z,32.04
2018-05-29T15:20:03.806Z,32.04
2018-05-29T15:22:29.573Z,31.95
2018-05-29T15:24:55.462Z,31.92
2018-05-29T15:27:21.163Z,31.90
2018-05-29T15:29:46.947Z,31.83
2018-05-29T15:32:12.697Z,31.85
2018-05-29T15:34:38.471Z,31.82
2018-05-29T15:37:04.224Z,31.82
2018-05-29T15:39:29.995Z,31.76
2018-05-29T15:41:55.747Z,31.75
2018-05-29T15:44:21.515Z,31.73
2018-05-29T15:46:47.303Z,31.71
2018-05-29T15:49:13.055Z,31.67
2018-05-29T15:51:38.976Z,31.58
2018-05-29T15:54:04.744Z,31.51
2018-05-29T15:56:30.611Z,31.47
2018-05-29T15:58:56.376Z,31.45
2018-05-29T16:01:22.163Z,31.43
2018-05-29T16:03:47.923Z,31.41
2018-05-29T16:06:13.691Z,31.42
2018-05-29T16:08:39.467Z,31.38
2018-05-29T16:11:05.242Z,31.38
2018-05-29T16:13:30.991Z,31.40
2018-05-29T16:15:56.777Z,31.38
2018-05-29T16:18:22.549Z,31.36
2018-05-29T16:20:48.311Z,31.30
2018-05-29T16:23:14.048Z,31.28
2018-05-29T16:25:39.795Z,31.24
2018-05-29T16:28:05.694Z,31.20
2018-05-29T16:30:31.464Z,31.24
2018-05-29T16:32:57.219Z,31.23
2018-05-29T16:35:23.051Z,31.21
2018-05-29T16:37:48.796Z,31.20
2018-05-29T16:40:14.576Z,31.20
2018-05-29T16:42:40.331Z,31.21
2018-05-29T16:45:06.095Z,31.17
2018-05-29T16:47:31.847Z,31.19
2018-05-29T16:49:57.630Z,31.15
2018-05-29T16:52:23.387Z,31.13
2018-05-29T16:54:49.140Z,31.12
2018-05-29T16:57:14.883Z,31.14
2018-05-29T16:59:40.663Z,31.12
2018-05-29T17:02:06.427Z,31.11
2018-05-29T17:04:32.195Z,31.10
2018-05-29T17:06:57.968Z,31.11
2018-05-29T17:09:23.735Z,31.15
2018-05-29T17:11:49.511Z,31.19
2018-05-29T17:14:15.256Z,31.22
2018-05-29T17:16:41.055Z,31.21
2018-05-29T17:19:06.807Z,31.21
2018-05-29T17:21:32.568Z,31.22
2018-05-29T17:24:01.145Z,31.22
2018-05-29T17:26:26.932Z,31.22
2018-05-29T17:28:52.739Z,31.22
2018-05-29T17:31:18.503Z,31.25
2018-05-29T17:33:44.255Z,31.19
2018-05-29T17:36:10.023Z,31.22
2018-05-29T17:38:35.784Z,31.25
2018-05-29T17:41:01.592Z,31.21
2018-05-29T17:43:27.336Z,31.22
2018-05-29T17:45:53.093Z,31.22
2018-05-29T17:48:18.870Z,31.19
2018-05-29T17:50:44.627Z,31.08
2018-05-29T17:53:10.412Z,30.87
2018-05-29T17:55:36.166Z,30.78
2018-05-29T17:58:01.951Z,30.63
2018-05-29T18:00:27.723Z,30.47
2018-05-29T18:02:53.488Z,30.34
2018-05-29T18:05:19.271Z,30.23
2018-05-29T18:07:45.048Z,30.16
2018-05-29T18:10:10.803Z,30.04
2018-05-29T18:12:42.676Z,29.98
2018-05-29T18:15:08.436Z,29.87
2018-05-29T18:17:34.212Z,29.85
2018-05-29T18:19:59.967Z,29.82
2018-05-29T18:22:25.727Z,29.77
2018-05-29T18:24:51.468Z,29.72
2018-05-29T18:27:17.277Z,29.68
2018-05-29T18:29:43.050Z,29.61
2018-05-29T18:32:08.829Z,29.55
2018-05-29T18:34:34.579Z,29.49
2018-05-29T18:37:00.355Z,29.38
2018-05-29T18:39:26.112Z,29.36
2018-05-29T18:41:51.886Z,29.33
2018-05-29T18:44:17.631Z,29.24
2018-05-29T18:46:43.399Z,29.18
2018-05-29T18:49:09.250Z,29.12
2018-05-29T18:51:34.963Z,29.05
2018-05-29T18:54:00.708Z,28.96
2018-05-29T18:56:26.540Z,28.93
2018-05-29T18:58:52.284Z,28.85
2018-05-29T19:01:18.032Z,28.75
2018-05-29T19:03:43.796Z,28.67
2018-05-29T19:06:09.542Z,28.58
2018-05-29T19:08:35.292Z,28.50
2018-05-29T19:11:01.047Z,28.44
2018-05-29T19:13:26.875Z,28.38
2018-05-29T19:15:52.620Z,28.31
2018-05-29T19:18:18.772Z,28.22
2018-05-29T19:20:44.532Z,28.11
2018-05-29T19:23:10.352Z,28.04
2018-05-29T19:25:36.075Z,27.96
2018-05-29T19:28:01.840Z,27.88
2018-05-29T19:30:27.615Z,27.82
2018-05-29T19:32:53.390Z,27.75
2018-05-29T19:35:19.244Z,27.68
2018-05-29T19:37:44.935Z,27.62
2018-05-29T19:40:10.704Z,27.56
2018-05-29T19:42:36.479Z,27.49
2018-05-29T19:45:02.284Z,27.46
2018-05-29T19:47:28.059Z,27.42
2018-05-29T19:49:53.827Z,27.38
2018-05-29T19:52:19.642Z,27.31
2018-05-29T19:54:45.518Z,27.26
2018-05-29T19:57:11.384Z,27.22
2018-05-29T19:59:37.136Z,27.16
2018-05-29T20:02:02.900Z,27.12
2018-05-29T20:04:28.651Z,27.05
2018-05-29T20:06:54.439Z,27.00
2018-05-29T20:09:20.168Z,26.97
2018-05-29T20:11:45.955Z,26.92
2018-05-29T20:14:11.728Z,26.89
2018-05-29T20:16:37.483Z,26.87
2018-05-29T20:19:03.248Z,26.82
2018-05-29T20:21:29.003Z,26.77
2018-05-29T20:23:54.775Z,26.75
2018-05-29T20:26:20.527Z,26.70
2018-05-29T20:28:46.299Z,26.66
2018-05-29T20:31:12.054Z,26.62
2018-05-29T20:33:37.819Z,26.57
2018-05-29T20:36:03.576Z,26.55
2018-05-29T20:38:29.364Z,26.50
2018-05-29T20:40:55.128Z,26.46
2018-05-29T20:43:20.913Z,26.43
2018-05-29T20:45:46.683Z,26.40
2018-05-29T20:48:12.467Z,26.37
2018-05-29T20:50:38.224Z,26.35
2018-05-29T20:53:03.999Z,26.31
2018-05-29T20:55:29.750Z,26.25
2018-05-29T20:57:55.748Z,26.25
2018-05-29T21:00:21.507Z,26.20
2018-05-29T21:02:47.275Z,26.16
2018-05-29T21:05:13.079Z,26.12
2018-05-29T21:07:38.835Z,26.10
2018-05-29T21:10:04.671Z,26.07
2018-05-29T21:12:30.643Z,26.01
2018-05-29T21:14:56.400Z,25.97
2018-05-29T21:17:22.178Z,25.93
2018-05-29T21:19:47.931Z,25.88
2018-05-29T21:22:13.728Z,25.86
2018-05-29T21:24:39.636Z,25.84
2018-05-29T21:27:05.359Z,25.80
2018-05-29T21:29:31.127Z,25.72
2018-05-29T21:31:56.889Z,25.70
2018-05-29T21:34:22.712Z,25.66
2018-05-29T21:36:48.471Z,25.60
2018-05-29T21:39:14.229Z,25.55
2018-05-29T21:41:40.057Z,25.50
2018-05-29T21:44:05.819Z,25.46
2018-05-29T21:46:31.631Z,25.42
2018-05-29T21:48:57.347Z,25.37
2018-05-29T21:51:23.235Z,25.31
2018-05-29T21:53:49.011Z,25.26
2018-05-29T21:56:14.757Z,25.20
2018-05-29T21:58:40.538Z,25.17
2018-05-29T22:01:06.436Z,25.13
2018-05-29T22:03:32.222Z,25.06
2018-05-29T22:05:57.979Z,25.01
2018-05-29T22:08:23.758Z,24.98
2018-05-29T22:10:56.388Z,24.91
2018-05-29T22:13:22.150Z,24.88
2018-05-29T22:15:47.920Z,24.85
2018-05-29T22:18:13.671Z,24.81
2018-05-29T22:20:39.624Z,24.78
2018-05-29T22:23:05.382Z,24.76
2018-05-29T22:25:31.144Z,24.74
2018-05-29T22:27:56.932Z,24.70
2018-05-29T22:30:22.714Z,24.65
2018-05-29T22:32:48.467Z,24.62
2018-05-29T22:35:14.248Z,24.59
2018-05-29T22:40:36.831Z,24.54
2018-05-29T22:43:02.605Z,24.49
2018-05-29T22:45:28.366Z,24.49
2018-05-29T22:47:54.141Z,24.45
2018-05-29T22:50:19.987Z,24.43
2018-05-29T22:52:45.730Z,24.41
2018-05-29T22:55:11.506Z,24.37
2018-05-29T22:57:37.243Z,24.35
2018-05-29T23:00:03.012Z,24.33
2018-05-29T23:02:28.767Z,24.28
2018-05-29T23:04:54.526Z,24.26
2018-05-29T23:07:20.276Z,24.22
2018-05-29T23:09:46.058Z,24.17
2018-05-29T23:12:11.808Z,24.13
2018-05-29T23:14:37.568Z,24.09
2018-05-29T23:17:03.328Z,24.07
2018-05-29T23:19:29.088Z,24.03
2018-05-29T23:21:54.838Z,24.01
2018-05-29T23:24:20.612Z,23.98
2018-05-29T23:26:46.383Z,23.95
2018-05-29T23:29:12.254Z,23.92
2018-05-29T23:31:38.923Z,23.88
2018-05-29T23:34:04.680Z,23.86
2018-05-29T23:36:30.452Z,23.83
2018-05-29T23:38:56.269Z,23.81
2018-05-29T23:41:22.169Z,23.77
2018-05-29T23:43:47.935Z,23.76
2018-05-29T23:46:13.683Z,23.73
2018-05-29T23:48:39.479Z,23.71
2018-05-29T23:51:05.371Z,23.70
2018-05-29T23:53:31.122Z,23.69
2018-05-29T23:55:57.007Z,23.68
2018-05-29T23:58:22.746Z,23.65
